createdAt,value
2022-11-14T00:00:28.242Z,29.57
2022-11-14T00:05:54.731Z,31.60
2022-11-14T00:08:28.556Z,31.97
2022-11-14T00:10:55.973Z,34.63
2022-11-14T00:13:23.119Z,31.93
2022-11-14T00:15:51.249Z,34.67
2022-11-14T00:18:18.605Z,30.37
2022-11-14T00:20:48.288Z,30.57
2022-11-14T00:23:15.511Z,32.93
2022-11-14T00:25:46.260Z,30.60
2022-11-14T00:28:13.365Z,30.23
2022-11-14T00:30:40.515Z,30.03
2022-11-14T00:33:08.098Z,31.47
2022-11-14T00:35:35.208Z,31.20
2022-11-14T00:38:04.095Z,28.30
2022-11-14T00:40:31.236Z,30.73
2022-11-14T00:42:58.347Z,32.10
2022-11-14T00:45:25.488Z,34.10
2022-11-14T00:47:54.562Z,29.97
2022-11-14T00:50:21.695Z,31.67
2022-11-14T00:52:48.784Z,25.87
2022-11-14T00:55:15.930Z,33.33
2022-11-14T00:57:43.272Z,34.57
2022-11-14T01:00:10.910Z,29.77
2022-11-14T01:02:38.048Z,31.93
2022-11-14T01:05:08.061Z,32.47
2022-11-14T01:07:35.353Z,34.60
2022-11-14T01:10:02.632Z,36.70
2022-11-14T01:12:29.769Z,28.33
2022-11-14T01:14:56.961Z,34.90
2022-11-14T01:17:24.364Z,31.67
2022-11-14T01:19:51.554Z,35.83
2022-11-14T01:22:18.717Z,36.27
2022-11-14T01:24:45.943Z,28.97
2022-11-14T01:27:13.128Z,33.50
2022-11-14T01:29:40.350Z,33.40
2022-11-14T01:32:07.629Z,30.60
2022-11-14T01:34:34.833Z,30.27
2022-11-14T01:37:01.969Z,31.57
2022-11-14T01:39:29.100Z,28.37
2022-11-14T01:41:56.282Z,31.13
2022-11-14T01:44:58.766Z,34.17
2022-11-14T01:47:30.400Z,34.57
2022-11-14T01:49:59.412Z,30.70
2022-11-14T01:52:28.458Z,29.87
2022-11-14T01:54:57.072Z,29.53
2022-11-14T01:57:27.621Z,32.00
2022-11-14T01:59:55.965Z,27.53
2022-11-14T02:02:26.329Z,29.73
2022-11-14T02:05:13.802Z,35.23
2022-11-14T02:07:41.436Z,29.10
2022-11-14T02:10:10.181Z,31.80
2022-11-14T02:12:38.154Z,31.23
2022-11-14T02:15:05.383Z,29.47
2022-11-14T02:17:33.146Z,29.97
2022-11-14T02:20:12.589Z,30.20
2022-11-14T02:22:40.809Z,28.87
2022-11-14T02:25:08.961Z,28.67
2022-11-14T02:27:36.959Z,28.07
2022-11-14T02:30:08.368Z,28.97
2022-11-14T02:32:56.842Z,29.23
2022-11-14T02:35:22.853Z,29.70
2022-11-14T02:37:49.962Z,27.47
2022-11-14T02:40:17.262Z,29.30
2022-11-14T02:42:44.386Z,32.53
2022-11-14T02:45:12.439Z,30.83
2022-11-14T02:47:39.586Z,28.50
2022-11-14T02:50:06.869Z,29.07
2022-11-14T02:52:34.098Z,30.60
2022-11-14T02:55:01.225Z,27.87
2022-11-14T02:57:28.340Z,28.77
2022-11-14T02:59:55.489Z,29.93
2022-11-14T03:02:22.679Z,29.27
2022-11-14T03:04:49.826Z,27.93
2022-11-14T03:07:17.025Z,28.23
2022-11-14T03:09:44.327Z,32.47
2022-11-14T03:12:11.462Z,30.00
2022-11-14T03:14:38.543Z,31.60
2022-11-14T03:17:05.719Z,32.80
2022-11-14T03:19:32.805Z,30.63
2022-11-14T03:21:59.944Z,27.17
2022-11-14T03:24:27.058Z,30.53
2022-11-14T03:26:54.230Z,30.10
2022-11-14T03:29:21.375Z,32.03
2022-11-14T03:31:48.459Z,29.53
2022-11-14T03:34:15.573Z,29.07
2022-11-14T03:36:42.708Z,27.83
2022-11-14T03:39:10.024Z,30.57
2022-11-14T03:41:37.133Z,27.70
2022-11-14T03:44:04.316Z,30.80
2022-11-14T03:46:31.416Z,29.60
2022-11-14T03:48:58.624Z,27.53
2022-11-14T03:51:26.096Z,27.63
2022-11-14T03:53:53.263Z,27.90
2022-11-14T03:56:20.380Z,25.97
2022-11-14T03:58:47.501Z,28.43
2022-11-14T04:01:14.713Z,27.93
2022-11-14T04:03:41.949Z,27.87
2022-11-14T04:06:09.229Z,28.10
2022-11-14T04:08:36.619Z,26.27
2022-11-14T04:11:03.731Z,31.60
2022-11-14T04:13:30.876Z,30.43
2022-11-14T04:15:58.705Z,24.30
2022-11-14T04:18:27.217Z,27.53
2022-11-14T04:20:54.584Z,27.27
2022-11-14T04:23:21.779Z,31.67
2022-11-14T04:25:49.153Z,24.90
2022-11-14T04:28:16.343Z,26.17
2022-11-14T04:30:45.214Z,29.70
2022-11-14T04:33:12.441Z,27.33
2022-11-14T04:35:39.730Z,25.17
2022-11-14T04:38:06.900Z,26.63
2022-11-14T04:40:43.778Z,24.10
2022-11-14T04:43:10.875Z,26.90
2022-11-14T04:45:37.978Z,22.80
2022-11-14T04:48:05.212Z,24.27
2022-11-14T04:50:32.541Z,25.83
2022-11-14T04:52:59.719Z,20.33
2022-11-14T04:55:26.864Z,26.03
2022-11-14T04:57:55.163Z,24.50
2022-11-14T05:00:22.655Z,26.37
2022-11-14T05:02:49.832Z,28.47
2022-11-14T05:05:16.993Z,28.17
2022-11-14T05:07:44.354Z,30.33
2022-11-14T05:10:11.465Z,24.03
2022-11-14T05:12:38.701Z,27.47
2022-11-14T05:15:05.977Z,24.33
2022-11-14T05:17:33.133Z,24.57
2022-11-14T05:20:00.231Z,25.03
2022-11-14T05:22:27.366Z,24.70
2022-11-14T05:24:54.493Z,28.00
2022-11-14T05:27:21.627Z,25.23
2022-11-14T05:29:48.788Z,25.40
2022-11-14T05:32:16.675Z,25.43
2022-11-14T05:34:44.156Z,25.00
2022-11-14T05:37:11.345Z,29.70
2022-11-14T05:39:41.238Z,27.73
2022-11-14T05:42:13.143Z,32.00
2022-11-14T05:44:50.324Z,31.20
2022-11-14T05:47:23.843Z,30.63
2022-11-14T05:50:03.437Z,27.60
2022-11-14T05:52:34.504Z,24.23
2022-11-14T05:55:11.497Z,23.00
2022-11-14T05:57:39.725Z,22.23
2022-11-14T06:00:07.069Z,25.23
2022-11-14T06:02:34.429Z,22.07
2022-11-14T06:05:01.688Z,26.33
2022-11-14T06:07:29.109Z,25.30
2022-11-14T06:09:56.432Z,25.20
2022-11-14T06:12:23.563Z,21.43
2022-11-14T06:14:51.010Z,20.73
2022-11-14T06:17:18.108Z,23.37
2022-11-14T06:19:45.237Z,25.87
2022-11-14T06:22:12.337Z,24.03
2022-11-14T06:24:39.952Z,24.57
2022-11-14T06:27:07.153Z,22.97
2022-11-14T06:29:35.729Z,27.63
2022-11-14T06:32:03.005Z,22.07
2022-11-14T06:34:33.240Z,28.90
2022-11-14T06:37:00.341Z,24.57
2022-11-14T06:39:27.445Z,27.80
2022-11-14T06:41:54.544Z,27.13
2022-11-14T06:44:25.155Z,23.90
2022-11-14T06:46:56.579Z,23.77
2022-11-14T06:49:25.014Z,26.83
2022-11-14T06:51:52.384Z,23.87
2022-11-14T06:54:19.502Z,26.47
2022-11-14T06:56:46.646Z,23.67
2022-11-14T06:59:14.341Z,21.73
2022-11-14T07:01:41.508Z,28.33
2022-11-14T07:04:10.017Z,24.30
2022-11-14T07:06:37.169Z,27.27
2022-11-14T07:09:04.341Z,29.10
2022-11-14T07:11:32.103Z,23.47
2022-11-14T07:14:03.603Z,26.83
2022-11-14T07:16:32.046Z,25.97
2022-11-14T07:18:59.915Z,28.57
2022-11-14T07:21:27.672Z,30.97
2022-11-14T07:23:54.985Z,24.47
2022-11-14T07:26:22.124Z,27.10
2022-11-14T07:28:52.870Z,28.77
2022-11-14T07:31:21.988Z,37.00
2022-11-14T07:33:49.269Z,31.23
2022-11-14T07:36:17.072Z,28.03
2022-11-14T07:38:44.464Z,24.20
2022-11-14T07:41:12.832Z,27.50
2022-11-14T07:43:40.340Z,27.30
2022-11-14T07:46:14.893Z,28.53
2022-11-14T07:48:42.316Z,25.23
2022-11-14T07:51:15.797Z,24.00
2022-11-14T07:53:43.006Z,24.97
2022-11-14T07:56:10.221Z,25.90
2022-11-14T07:58:38.400Z,27.67
2022-11-14T08:01:06.252Z,26.03
2022-11-14T08:03:33.475Z,24.13
2022-11-14T08:06:01.696Z,22.83
2022-11-14T08:08:29.183Z,23.03
2022-11-14T08:10:57.743Z,26.17
2022-11-14T08:13:32.023Z,24.67
2022-11-14T08:16:00.286Z,22.00
2022-11-14T08:18:27.727Z,25.67
2022-11-14T08:20:57.562Z,23.63
2022-11-14T08:23:24.864Z,23.37
2022-11-14T08:25:52.168Z,28.27
2022-11-14T08:28:19.298Z,23.53
2022-11-14T08:30:46.585Z,23.30
2022-11-14T08:33:13.934Z,20.53
2022-11-14T08:35:41.192Z,21.50
2022-11-14T08:38:08.371Z,25.23
2022-11-14T08:40:35.512Z,21.00
2022-11-14T08:43:03.233Z,20.33
2022-11-14T08:45:30.791Z,20.93
2022-11-14T08:47:58.027Z,20.13
2022-11-14T08:50:25.274Z,19.50
2022-11-14T08:52:52.905Z,19.37
2022-11-14T08:55:20.356Z,21.07
2022-11-14T08:57:49.582Z,20.83
2022-11-14T09:00:17.427Z,21.03
2022-11-14T09:02:44.785Z,17.07
2022-11-14T09:05:12.110Z,21.30
2022-11-14T09:07:39.767Z,22.50
2022-11-14T09:10:07.369Z,17.43
2022-11-14T09:12:34.688Z,19.23
2022-11-14T09:15:02.036Z,21.70
2022-11-14T09:17:29.148Z,19.73
2022-11-14T09:19:56.273Z,19.77
2022-11-14T09:22:23.490Z,19.93
2022-11-14T09:24:52.035Z,19.17
2022-11-14T09:27:19.239Z,16.63
2022-11-14T09:29:46.369Z,16.27
2022-11-14T09:32:13.531Z,19.87
2022-11-14T09:34:43.525Z,16.63
2022-11-14T09:37:10.657Z,17.97
2022-11-14T09:39:40.727Z,18.50
2022-11-14T09:42:35.316Z,18.33
2022-11-14T09:45:03.602Z,19.30
2022-11-14T09:47:33.484Z,20.70
2022-11-14T09:50:07.489Z,15.73
2022-11-14T09:52:34.667Z,18.70
2022-11-14T09:55:06.252Z,14.93
2022-11-14T09:57:33.357Z,17.30
2022-11-14T10:00:00.520Z,16.63
2022-11-14T10:02:38.529Z,15.77
2022-11-14T10:05:21.605Z,17.70
2022-11-14T10:08:18.249Z,17.30
2022-11-14T10:10:56.752Z,15.60
2022-11-14T10:13:42.462Z,16.30
2022-11-14T10:16:15.606Z,14.43
2022-11-14T10:18:51.577Z,14.40
2022-11-14T10:21:24.568Z,16.77
2022-11-14T10:24:00.786Z,15.20
2022-11-14T10:26:31.863Z,16.00
2022-11-14T10:29:17.690Z,17.27
2022-11-14T10:31:50.787Z,16.00
2022-11-14T10:34:36.739Z,14.63
2022-11-14T10:37:16.350Z,12.83
2022-11-14T10:39:54.177Z,14.23
2022-11-14T10:42:36.465Z,15.00
2022-11-14T10:45:17.970Z,16.57
2022-11-14T10:47:49.348Z,14.00
2022-11-14T10:50:20.880Z,17.70
2022-11-14T10:52:48.727Z,14.93
2022-11-14T10:55:17.313Z,16.50
2022-11-14T10:57:46.490Z,26.10
2022-11-14T11:00:15.076Z,15.20
2022-11-14T11:03:00.358Z,14.57
2022-11-14T11:05:31.011Z,14.17
2022-11-14T11:08:42.140Z,13.63
2022-11-14T11:11:24.369Z,16.77
2022-11-14T11:13:53.896Z,17.93
2022-11-14T11:16:23.140Z,19.90
2022-11-14T11:18:50.883Z,17.97
2022-11-14T11:21:22.204Z,13.87
2022-11-14T11:23:58.322Z,14.47
2022-11-14T11:26:32.706Z,14.97
2022-11-14T11:29:11.755Z,22.10
2022-11-14T11:31:50.159Z,12.33
2022-11-14T11:34:20.157Z,20.40
2022-11-14T11:36:49.280Z,16.07
2022-11-14T11:39:21.798Z,12.67
2022-11-14T11:42:08.716Z,18.43
2022-11-14T11:44:38.696Z,13.60
2022-11-14T11:47:09.595Z,15.30
2022-11-14T11:49:52.902Z,15.80
2022-11-14T11:52:38.095Z,13.27
2022-11-14T11:55:08.111Z,15.37
2022-11-14T11:57:43.436Z,12.77
2022-11-14T12:00:23.078Z,13.23
2022-11-14T12:02:52.308Z,15.07
2022-11-14T12:05:25.753Z,14.97
2022-11-14T12:08:01.077Z,13.30
2022-11-14T12:10:30.121Z,12.97
2022-11-14T12:13:16.072Z,14.20
2022-11-14T12:16:01.931Z,14.33
2022-11-14T12:18:40.952Z,11.00
2022-11-14T12:21:31.377Z,11.97
2022-11-14T12:23:58.454Z,14.20
2022-11-14T12:26:39.822Z,13.00
2022-11-14T12:29:12.888Z,17.93
2022-11-14T12:31:40.833Z,15.00
2022-11-14T12:36:46.101Z,14.33
2022-11-14T12:39:24.813Z,15.07
2022-11-14T12:42:01.024Z,12.93
2022-11-14T12:44:28.178Z,12.13
2022-11-14T12:47:07.555Z,13.10
2022-11-14T12:49:50.088Z,13.93
2022-11-14T12:52:36.078Z,16.77
2022-11-14T12:55:03.273Z,10.83
2022-11-14T12:57:48.669Z,12.03
2022-11-14T13:00:16.811Z,13.83
2022-11-14T13:03:01.990Z,10.67
2022-11-14T13:05:49.349Z,11.03
2022-11-14T13:08:22.869Z,14.17
2022-11-14T13:10:49.995Z,10.97
2022-11-14T13:13:36.286Z,10.00
2022-11-14T13:16:23.392Z,11.70
2022-11-14T13:19:15.165Z,11.23
2022-11-14T13:22:01.152Z,9.30
2022-11-14T13:24:48.422Z,9.50
2022-11-14T13:27:52.182Z,10.37
2022-11-14T13:30:15.577Z,12.70
2022-11-14T13:32:42.810Z,10.53
2022-11-14T13:35:14.432Z,13.10
2022-11-14T13:38:00.406Z,12.07
2022-11-14T13:40:27.499Z,11.87
2022-11-14T13:43:06.255Z,10.50
2022-11-14T13:45:52.116Z,9.83
2022-11-14T13:48:47.214Z,11.33
2022-11-14T13:51:41.648Z,12.40
2022-11-14T13:54:03.842Z,11.57
2022-11-14T13:56:43.233Z,11.47
2022-11-14T13:59:31.337Z,13.50
2022-11-14T14:02:16.636Z,11.60
2022-11-14T14:05:02.521Z,12.47
2022-11-14T14:07:48.451Z,11.10
2022-11-14T14:10:24.861Z,11.13
2022-11-14T14:12:57.908Z,11.47
2022-11-14T14:15:43.912Z,13.27
2022-11-14T14:18:34.347Z,16.33
2022-11-14T14:21:09.505Z,15.07
2022-11-14T14:23:50.561Z,10.83
2022-11-14T14:26:20.607Z,12.87
2022-11-14T14:28:56.365Z,10.50
2022-11-14T14:31:23.763Z,10.07
2022-11-14T14:33:51.945Z,12.23
2022-11-14T14:36:26.532Z,12.03
2022-11-14T14:39:12.468Z,10.73
2022-11-14T14:41:39.663Z,11.90
2022-11-14T14:44:07.093Z,12.87
2022-11-14T14:46:34.276Z,14.80
2022-11-14T14:49:03.862Z,12.73
2022-11-14T14:51:35.564Z,13.63
2022-11-14T14:54:02.919Z,12.97
2022-11-14T14:56:30.555Z,11.90
2022-11-14T14:58:57.678Z,11.87
2022-11-14T15:01:32.818Z,13.40
2022-11-14T15:04:06.832Z,12.73
2022-11-14T15:06:35.893Z,14.63
2022-11-14T15:09:08.636Z,16.27
2022-11-14T15:11:36.299Z,14.17
2022-11-14T15:14:03.780Z,11.87
2022-11-14T15:16:31.119Z,16.07
2022-11-14T15:18:58.898Z,12.10
2022-11-14T15:21:27.735Z,13.53
2022-11-14T15:24:13.256Z,13.23
2022-11-14T15:26:40.700Z,14.80
2022-11-14T15:29:08.958Z,13.33
2022-11-14T15:31:36.965Z,18.47
2022-11-14T15:34:05.774Z,14.87
2022-11-14T15:36:32.961Z,17.10
2022-11-14T15:39:01.899Z,14.87
2022-11-14T15:41:30.041Z,11.93
2022-11-14T15:46:35.926Z,12.27
2022-11-14T15:49:15.094Z,13.57
2022-11-14T15:51:53.763Z,13.20
2022-11-14T15:54:25.241Z,13.87
2022-11-14T15:56:53.093Z,15.53
2022-11-14T15:59:20.414Z,15.03
2022-11-14T16:01:49.092Z,14.10
2022-11-14T16:04:21.186Z,14.73
2022-11-14T16:06:48.796Z,13.13
2022-11-14T16:09:17.364Z,12.90
2022-11-14T16:11:44.746Z,15.37
2022-11-14T16:14:12.125Z,13.00
2022-11-14T16:16:39.491Z,11.17
2022-11-14T16:19:06.920Z,14.80
2022-11-14T16:21:34.306Z,11.23
2022-11-14T16:26:38.069Z,13.30
2022-11-14T16:29:05.329Z,15.30
2022-11-14T16:31:32.503Z,14.73
2022-11-14T16:33:59.703Z,13.40
2022-11-14T16:36:26.932Z,14.17
2022-11-14T16:38:59.209Z,13.67
2022-11-14T16:41:26.588Z,13.20
2022-11-14T16:43:55.107Z,10.03
2022-11-14T16:46:22.570Z,10.90
2022-11-14T16:48:49.700Z,12.00
2022-11-14T16:51:46.240Z,10.00
2022-11-14T16:54:04.285Z,9.40
2022-11-14T16:56:31.485Z,11.33
2022-11-14T16:58:58.849Z,9.70
2022-11-14T17:01:26.070Z,10.83
2022-11-14T17:03:53.392Z,8.37
2022-11-14T17:06:20.624Z,13.23
2022-11-14T17:08:47.744Z,10.13
2022-11-14T17:11:14.832Z,11.57
2022-11-14T17:13:42.205Z,8.87
2022-11-14T17:16:09.464Z,8.43
2022-11-14T17:18:38.747Z,9.87
2022-11-14T17:21:07.328Z,9.83
2022-11-14T17:23:34.557Z,9.17
2022-11-14T17:26:09.966Z,10.27
2022-11-14T17:28:38.972Z,10.80
2022-11-14T17:31:09.870Z,11.27
2022-11-14T17:33:37.536Z,13.57
2022-11-14T17:36:08.919Z,10.03
2022-11-14T17:38:36.943Z,10.30
2022-11-14T17:41:07.589Z,12.23
2022-11-14T17:43:38.987Z,8.83
2022-11-14T17:46:11.204Z,13.37
2022-11-14T17:48:42.674Z,10.43
2022-11-14T17:51:11.747Z,11.67
2022-11-14T17:53:39.088Z,10.37
2022-11-14T17:56:07.746Z,10.03
2022-11-14T17:58:35.265Z,10.33
2022-11-14T18:01:09.586Z,9.27
2022-11-14T18:03:36.922Z,10.37
2022-11-14T18:06:07.983Z,11.67
2022-11-14T18:08:35.630Z,10.00
2022-11-14T18:11:03.220Z,8.83
2022-11-14T18:13:30.351Z,11.57
2022-11-14T18:16:04.546Z,8.90
2022-11-14T18:18:33.072Z,8.93
2022-11-14T18:21:06.564Z,9.60
2022-11-14T18:23:35.247Z,8.43
2022-11-14T18:26:02.526Z,13.30
2022-11-14T18:28:29.846Z,9.53
2022-11-14T18:30:57.386Z,10.17
2022-11-14T18:33:24.814Z,10.50
2022-11-14T18:36:02.014Z,8.23
2022-11-14T18:38:33.176Z,10.17
2022-11-14T18:41:05.995Z,13.20
2022-11-14T18:43:34.135Z,10.13
2022-11-14T18:46:05.545Z,11.00
2022-11-14T18:48:32.849Z,11.40
2022-11-14T18:51:03.807Z,12.30
2022-11-14T18:53:32.263Z,10.97
2022-11-14T18:55:59.825Z,10.13
2022-11-14T18:58:26.952Z,10.60
2022-11-14T19:00:54.549Z,11.67
2022-11-14T19:03:21.689Z,11.57
2022-11-14T19:05:48.907Z,11.10
2022-11-14T19:08:18.687Z,13.07
2022-11-14T19:10:45.903Z,10.17
2022-11-14T19:13:13.051Z,13.17
2022-11-14T19:15:42.537Z,10.93
2022-11-14T19:18:09.937Z,13.17
2022-11-14T19:20:37.105Z,12.20
2022-11-14T19:23:04.253Z,10.10
2022-11-14T19:25:36.796Z,11.77
2022-11-14T19:28:05.071Z,14.23
2022-11-14T19:30:32.242Z,12.40
2022-11-14T19:32:59.413Z,13.03
2022-11-14T19:35:26.527Z,13.20
2022-11-14T19:37:53.714Z,11.40
2022-11-14T19:40:21.119Z,11.60
2022-11-14T19:42:48.230Z,14.03
2022-11-14T19:45:15.444Z,10.77
2022-11-14T19:47:42.745Z,11.70
2022-11-14T19:50:10.246Z,11.13
2022-11-14T19:52:37.648Z,15.03
2022-11-14T19:55:04.907Z,11.33
2022-11-14T19:57:32.102Z,12.23
2022-11-14T19:59:59.245Z,15.27
2022-11-14T20:02:28.574Z,15.60
2022-11-14T20:04:55.850Z,18.10
2022-11-14T20:07:23.022Z,14.37
2022-11-14T20:09:50.188Z,14.57
2022-11-14T20:12:17.274Z,15.17
2022-11-14T20:14:44.416Z,15.40
2022-11-14T20:17:11.585Z,14.13
2022-11-14T20:19:38.720Z,15.60
2022-11-14T20:22:06.619Z,20.47
2022-11-14T20:24:33.795Z,20.00
2022-11-14T20:27:01.204Z,18.70
2022-11-14T20:29:30.566Z,19.90
2022-11-14T20:31:57.782Z,19.67
2022-11-14T20:34:24.921Z,16.27
2022-11-14T20:39:39.137Z,16.50
2022-11-14T20:42:06.294Z,14.30
2022-11-14T20:44:33.433Z,15.40
2022-11-14T20:47:00.540Z,14.23
2022-11-14T20:49:27.644Z,14.27
2022-11-14T20:51:54.765Z,15.53
2022-11-14T20:54:21.910Z,15.90
2022-11-14T20:56:49.008Z,15.27
2022-11-14T20:59:16.180Z,19.13
2022-11-14T21:01:44.160Z,15.43
2022-11-14T21:06:55.859Z,16.47
2022-11-14T21:09:23.018Z,14.10
2022-11-14T21:12:01.152Z,17.17
2022-11-14T21:14:28.787Z,14.13
2022-11-14T21:16:55.967Z,12.77
2022-11-14T21:19:23.153Z,11.83
2022-11-14T21:21:50.416Z,13.80
2022-11-14T21:24:17.561Z,12.03
2022-11-14T21:26:44.839Z,14.93
2022-11-14T21:29:12.845Z,13.40
2022-11-14T21:31:39.980Z,14.57
2022-11-14T21:34:08.076Z,13.70
2022-11-14T21:36:45.087Z,16.00
2022-11-14T21:39:16.445Z,14.17
2022-11-14T21:41:44.312Z,14.80
2022-11-14T21:44:16.647Z,14.07
2022-11-14T21:46:46.265Z,12.90
2022-11-14T21:49:13.596Z,11.87
2022-11-14T21:51:40.978Z,13.90
2022-11-14T21:54:08.156Z,14.13
2022-11-14T21:56:37.021Z,15.80
2022-11-14T21:59:21.440Z,15.00
2022-11-14T22:02:08.696Z,13.97
2022-11-14T22:04:36.387Z,13.13
2022-11-14T22:07:04.779Z,13.63
2022-11-14T22:09:32.441Z,17.07
2022-11-14T22:11:59.932Z,18.80
2022-11-14T22:14:27.227Z,15.73
2022-11-14T22:16:54.446Z,16.63
2022-11-14T22:19:21.645Z,17.53
2022-11-14T22:21:48.825Z,17.07
2022-11-14T22:24:16.017Z,12.53
2022-11-14T22:26:43.211Z,16.47
2022-11-14T22:29:10.663Z,17.10
2022-11-14T22:31:38.264Z,16.87
2022-11-14T22:34:05.791Z,17.67
2022-11-14T22:36:33.464Z,16.47
2022-11-14T22:39:00.634Z,16.37
2022-11-14T22:41:32.367Z,16.93
2022-11-14T22:44:00.155Z,15.77
2022-11-14T22:46:27.694Z,18.70
2022-11-14T22:48:54.944Z,16.47
2022-11-14T22:51:27.458Z,15.83
2022-11-14T22:53:55.661Z,12.77
2022-11-14T22:56:23.935Z,14.97
2022-11-14T22:58:51.721Z,13.07
2022-11-14T23:01:20.489Z,12.67
2022-11-14T23:03:48.378Z,12.20
2022-11-14T23:06:17.088Z,13.67
2022-11-14T23:08:44.362Z,12.60
2022-11-14T23:11:12.808Z,15.43
2022-11-14T23:13:40.955Z,13.67
2022-11-14T23:16:11.988Z,15.33
2022-11-14T23:18:39.448Z,10.90
2022-11-14T23:21:11.047Z,14.33
2022-11-14T23:23:38.239Z,13.87
2022-11-14T23:26:05.397Z,12.97
2022-11-14T23:28:32.701Z,12.43
2022-11-14T23:31:00.767Z,11.40
2022-11-14T23:33:29.136Z,16.43
2022-11-14T23:35:56.923Z,13.33
2022-11-14T23:38:24.197Z,13.13
2022-11-14T23:40:55.205Z,12.10
2022-11-14T23:43:22.368Z,12.37
2022-11-14T23:45:49.670Z,12.03
2022-11-14T23:48:17.365Z,10.23
2022-11-14T23:50:44.661Z,12.63
2022-11-14T23:53:12.333Z,15.23
2022-11-14T23:55:39.495Z,14.93
2022-11-14T23:58:07.000Z,12.30
